Time;durP1;ratioP1;P1;durP2;ratioP2;P2;SDS_P1;SDS_P2;PMS_P1;PMS_P2;Temp;Humidity;BMP_temperature;BMP_pressure;BME280_temperature;BME280_humidity;BME280_pressure;Samples;Min_cycle;Max_cycle;Signal;HPM_P1;HPM_P2
2022/07/15 00:00:07;;;;;;;1.80;0.90;;;19.50;70.50;;;;;;5013743;28;20596;-74
2022/07/15 00:02:33;;;;;;;2.90;0.80;;;19.40;71.00;;;;;;5014270;28;20664;-74
2022/07/15 00:04:59;;;;;;;3.80;0.90;;;19.40;71.70;;;;;;5013358;28;20756;-73
2022/07/15 00:07:25;;;;;;;1.83;0.70;;;19.40;72.60;;;;;;5014173;28;20581;-74
2022/07/15 00:12:35;;;;;;;4.40;0.80;;;19.30;73.20;;;;;;5013861;28;20609;-73
2022/07/15 00:15:01;;;;;;;3.77;1.30;;;19.20;73.70;;;;;;5012236;28;20679;-74
2022/07/15 00:17:27;;;;;;;2.80;0.90;;;19.20;75.20;;;;;;5014066;28;20202;-74
2022/07/15 00:19:53;;;;;;;2.80;1.33;;;19.10;74.80;;;;;;5013674;28;20581;-74
2022/07/15 00:22:18;;;;;;;1.30;0.70;;;19.10;75.20;;;;;;5012548;28;20265;-74
2022/07/15 00:24:44;;;;;;;3.83;1.20;;;19.00;75.80;;;;;;5013297;28;20597;-74
2022/07/15 00:27:11;;;;;;;2.00;0.73;;;19.00;76.60;;;;;;5012440;28;20177;-74
2022/07/15 00:29:37;;;;;;;2.90;0.70;;;19.00;77.10;;;;;;5012315;28;20224;-74
2022/07/15 00:32:03;;;;;;;2.67;0.60;;;18.90;77.70;;;;;;5012337;28;20616;-74
2022/07/15 00:34:29;;;;;;;3.40;0.70;;;18.90;78.20;;;;;;5013323;28;20226;-74
2022/07/15 00:36:55;;;;;;;2.03;0.80;;;18.80;78.70;;;;;;5012360;28;20612;-74
2022/07/15 00:39:21;;;;;;;2.80;0.83;;;18.80;79.20;;;;;;5012534;28;20162;-74
2022/07/15 00:41:48;;;;;;;4.17;0.90;;;18.70;79.90;;;;;;5011785;28;20174;-74
2022/07/15 00:44:13;;;;;;;4.80;1.00;;;18.70;80.70;;;;;;5011738;28;20993;-74
2022/07/15 00:46:41;;;;;;;2.27;0.83;;;18.70;81.40;;;;;;5013378;28;20570;-74
2022/07/15 00:49:09;;;;;;;3.07;0.90;;;18.70;82.00;;;;;;5011938;28;21144;-74
2022/07/15 00:51:42;;;;;;;2.23;1.00;;;18.60;82.50;;;;;;5011738;28;20934;-74
2022/07/15 00:54:13;;;;;;;3.27;1.33;;;18.60;83.80;;;;;;5012759;28;20640;-74
2022/07/15 00:56:45;;;;;;;1.73;0.70;;;18.50;84.20;;;;;;5013040;28;20561;-74
2022/07/15 00:59:12;;;;;;;3.50;0.80;;;18.60;84.80;;;;;;5013178;28;20661;-74
2022/07/15 01:01:39;;;;;;;2.50;0.90;;;18.50;84.90;;;;;;4995298;28;20643;-74
2022/07/15 01:04:05;;;;;;;3.20;0.90;;;18.50;85.50;;;;;;5011309;28;20708;-74
2022/07/15 01:06:32;;;;;;;7.80;1.20;;;18.40;86.00;;;;;;5013094;28;20668;-74
2022/07/15 01:08:58;;;;;;;2.03;0.77;;;18.40;86.70;;;;;;5011509;28;20969;-74
2022/07/15 01:11:25;;;;;;;2.73;1.07;;;18.40;87.40;;;;;;5010556;28;20569;-73
2022/07/15 01:13:52;;;;;;;2.33;1.13;;;18.40;87.90;;;;;;5011458;28;20613;-74
2022/07/15 01:16:18;;;;;;;3.77;0.90;;;18.40;88.20;;;;;;5011152;28;20577;-74
2022/07/15 01:18:44;;;;;;;3.43;1.10;;;18.30;88.60;;;;;;5011589;28;21148;-74
2022/07/15 01:21:10;;;;;;;2.17;1.03;;;18.30;88.90;;;;;;5011381;28;20174;-74
2022/07/15 01:23:40;;;;;;;2.10;1.10;;;18.30;89.70;;;;;;5011089;28;20582;-74
2022/07/15 01:26:26;;;;;;;4.30;1.70;;;18.40;90.20;;;;;;5001681;28;20936;-74
2022/07/15 01:28:52;;;;;;;3.57;1.03;;;18.40;90.40;;;;;;5011327;28;21132;-74
2022/07/15 01:31:21;;;;;;;3.00;0.90;;;18.50;90.70;;;;;;5011164;28;20573;-74
2022/07/15 01:33:47;;;;;;;4.07;1.10;;;18.50;90.90;;;;;;4994566;28;20707;-73
2022/07/15 01:36:13;;;;;;;1.50;0.70;;;18.50;91.20;;;;;;5010609;28;20163;-74
2022/07/15 01:38:44;;;;;;;3.90;0.90;;;18.60;91.40;;;;;;5011084;28;20253;-74
2022/07/15 01:41:09;;;;;;;2.03;0.80;;;18.60;91.60;;;;;;5011020;28;20654;-74
2022/07/15 01:43:35;;;;;;;2.07;1.00;;;18.60;91.60;;;;;;5011247;28;20581;-74
2022/07/15 01:46:02;;;;;;;2.87;0.97;;;18.60;91.80;;;;;;5010681;28;20244;-73
2022/07/15 01:51:36;;;;;;;2.40;1.00;;;18.60;92.10;;;;;;5012544;28;20572;-81
2022/07/15 01:54:03;;;;;;;1.60;0.83;;;18.60;92.00;;;;;;5011177;28;20640;-81
2022/07/15 01:56:28;;;;;;;2.80;0.80;;;18.60;92.40;;;;;;5011520;28;20566;-81
2022/07/15 01:58:54;;;;;;;6.50;1.00;;;18.60;92.60;;;;;;5011219;28;20178;-81
2022/07/15 02:01:20;;;;;;;4.47;1.40;;;18.60;92.70;;;;;;5011148;28;20170;-81
2022/07/15 02:03:47;;;;;;;4.73;0.93;;;18.60;92.80;;;;;;4995044;28;20603;-81
2022/07/15 02:06:12;;;;;;;7.17;1.10;;;18.60;93.00;;;;;;5012142;28;20566;-80
2022/07/15 02:08:38;;;;;;;3.07;0.90;;;18.70;93.20;;;;;;5012126;28;20166;-81
2022/07/15 02:11:07;;;;;;;2.40;1.10;;;18.70;93.20;;;;;;5010893;28;20181;-81
2022/07/15 02:13:34;;;;;;;2.33;0.90;;;18.70;93.30;;;;;;5010988;28;20621;-81
2022/07/15 02:16:00;;;;;;;3.70;1.00;;;18.80;93.40;;;;;;4993809;28;21184;-81
2022/07/15 02:18:27;;;;;;;2.33;1.27;;;18.80;93.50;;;;;;5011206;28;20572;-81
2022/07/15 02:20:53;;;;;;;2.70;0.90;;;18.80;93.70;;;;;;5011091;28;20569;-81
2022/07/15 02:23:18;;;;;;;2.47;1.00;;;18.80;93.80;;;;;;5010914;28;20209;-81
2022/07/15 02:25:44;;;;;;;1.60;1.00;;;18.90;93.90;;;;;;5023123;28;20181;-81
2022/07/15 02:28:10;;;;;;;1.97;0.80;;;18.90;94.00;;;;;;5022256;28;20260;-82
2022/07/15 02:30:39;;;;;;;5.20;0.80;;;18.90;94.00;;;;;;5030188;28;20197;-82
2022/07/15 02:33:06;;;;;;;2.53;1.07;;;18.90;94.00;;;;;;5030467;28;21054;-81
2022/07/15 02:35:33;;;;;;;3.03;1.00;;;18.90;94.00;;;;;;5030949;28;20636;-82
2022/07/15 02:37:59;;;;;;;4.40;1.50;;;18.90;94.00;;;;;;5030027;28;20576;-81
2022/07/15 02:40:26;;;;;;;4.90;1.67;;;18.80;94.00;;;;;;5030009;28;20580;-82
2022/07/15 02:42:58;;;;;;;4.57;1.00;;;18.80;94.00;;;;;;5031406;28;20630;-81
2022/07/15 02:45:26;;;;;;;3.10;0.87;;;18.70;94.20;;;;;;5029592;28;20612;-82
2022/07/15 02:47:53;;;;;;;2.57;1.00;;;18.70;94.20;;;;;;5030134;28;20572;-81
2022/07/15 02:50:26;;;;;;;2.60;0.80;;;18.60;94.30;;;;;;5029855;28;20978;-81
2022/07/15 02:52:51;;;;;;;3.10;1.13;;;18.60;94.50;;;;;;5030116;28;20662;-82
2022/07/15 02:55:18;;;;;;;3.17;0.83;;;18.60;94.70;;;;;;5029596;28;20654;-82
2022/07/15 02:57:43;;;;;;;3.90;0.80;;;18.50;94.90;;;;;;5030007;28;20953;-82
2022/07/15 03:00:13;;;;;;;2.27;0.93;;;18.50;95.10;;;;;;5029770;28;20564;-81
2022/07/15 03:02:39;;;;;;;4.43;1.40;;;18.50;95.30;;;;;;5030022;28;20583;-81
2022/07/15 03:05:08;;;;;;;2.80;1.47;;;18.50;95.30;;;;;;5046353;28;20707;-81
2022/07/15 03:07:36;;;;;;;4.03;0.90;;;18.60;96.00;;;;;;5014051;28;20587;-82
2022/07/15 03:10:03;;;;;;;3.63;1.03;;;18.60;95.60;;;;;;5029706;28;20999;-82
2022/07/15 03:12:30;;;;;;;3.73;1.20;;;18.60;95.70;;;;;;5029898;28;20635;-81
2022/07/15 03:14:58;;;;;;;2.00;0.97;;;18.60;95.80;;;;;;5029426;28;21196;-81
2022/07/15 03:17:24;;;;;;;2.37;1.00;;;18.60;96.00;;;;;;5029908;28;20576;-81
2022/07/15 03:19:50;;;;;;;3.13;0.93;;;18.60;96.00;;;;;;5030706;28;20617;-81
2022/07/15 03:22:15;;;;;;;2.70;0.90;;;18.70;96.10;;;;;;5030989;28;20587;-82
2022/07/15 03:24:42;;;;;;;4.67;1.13;;;18.60;96.00;;;;;;5029280;28;20198;-82
2022/07/15 03:27:09;;;;;;;2.20;0.97;;;18.70;96.10;;;;;;5029848;28;20568;-82
2022/07/15 03:29:35;;;;;;;1.73;0.80;;;18.70;96.20;;;;;;5029766;28;20568;-81
2022/07/15 03:32:02;;;;;;;3.40;1.13;;;18.70;96.30;;;;;;5029657;28;20631;-81
2022/07/15 03:34:28;;;;;;;2.90;0.90;;;18.70;96.40;;;;;;5029619;28;20618;-81
2022/07/15 03:36:54;;;;;;;2.80;0.90;;;18.80;96.60;;;;;;5033434;28;20659;-81
2022/07/15 03:39:22;;;;;;;2.97;1.00;;;18.80;96.80;;;;;;5050008;28;20661;-81
2022/07/15 03:41:48;;;;;;;5.00;1.30;;;18.80;96.90;;;;;;5032963;28;20576;-82
2022/07/15 03:44:14;;;;;;;2.47;1.20;;;18.80;97.00;;;;;;5016631;28;20662;-82
2022/07/15 03:46:40;;;;;;;4.87;0.90;;;18.80;97.50;;;;;;5033208;28;20572;-82
2022/07/15 03:49:06;;;;;;;4.07;1.10;;;18.80;97.20;;;;;;5033119;28;20583;-81
2022/07/15 03:51:33;;;;;;;10.80;2.23;;;18.80;97.40;;;;;;5032822;28;20564;-82
2022/07/15 03:54:00;;;;;;;3.70;1.17;;;18.80;97.50;;;;;;5032333;28;21206;-81
2022/07/15 03:56:27;;;;;;;3.60;1.30;;;18.80;97.60;;;;;;5033003;28;20626;-81
2022/07/15 03:58:53;;;;;;;3.53;1.30;;;18.80;97.80;;;;;;5032886;28;20572;-82
2022/07/15 04:01:20;;;;;;;5.47;1.67;;;18.80;98.00;;;;;;5032780;28;20604;-81
2022/07/15 04:03:48;;;;;;;3.73;1.30;;;18.70;98.10;;;;;;5015914;28;20606;-81
2022/07/15 04:06:15;;;;;;;6.13;2.17;;;18.80;98.40;;;;;;5032446;28;20683;-82
2022/07/15 04:08:41;;;;;;;5.83;1.53;;;18.80;98.40;;;;;;5035124;28;20692;-82
2022/07/15 04:11:07;;;;;;;5.63;1.20;;;18.80;98.50;;;;;;5039611;28;20588;-82
2022/07/15 04:13:33;;;;;;;6.07;1.50;;;18.70;98.60;;;;;;5033361;28;20701;-82
2022/07/15 04:15:59;;;;;;;8.47;1.97;;;18.70;98.80;;;;;;5032496;28;20196;-81
2022/07/15 04:18:24;;;;;;;3.27;1.40;;;18.70;99.00;;;;;;4999939;28;20181;-81
2022/07/15 04:20:51;;;;;;;3.00;1.13;;;18.70;99.20;;;;;;5033715;28;20241;-81
2022/07/15 04:23:17;;;;;;;5.53;1.10;;;18.70;99.30;;;;;;5032664;28;20596;-81
2022/07/15 04:25:44;;;;;;;3.87;1.50;;;18.70;99.30;;;;;;5033151;28;20200;-81
2022/07/15 04:28:14;;;;;;;6.90;1.20;;;18.60;99.50;;;;;;5032585;28;20970;-82
2022/07/15 04:30:40;;;;;;;4.73;1.40;;;18.60;99.50;;;;;;5032111;28;20583;-81
2022/07/15 04:33:08;;;;;;;4.10;1.50;;;18.60;99.80;;;;;;5032218;28;20620;-82
2022/07/15 04:35:38;;;;;;;3.43;1.10;;;18.60;99.70;;;;;;5031758;28;20601;-82
2022/07/15 04:38:06;;;;;;;3.93;1.30;;;18.60;99.80;;;;;;5032412;28;20991;-81
2022/07/15 04:40:33;;;;;;;4.17;1.30;;;18.60;99.90;;;;;;5015513;28;20572;-82
2022/07/15 04:43:03;;;;;;;3.00;1.30;;;18.60;99.90;;;;;;5031851;28;20590;-82
2022/07/15 04:45:29;;;;;;;5.53;1.50;;;18.60;99.90;;;;;;5048078;28;20603;-82
2022/07/15 04:47:56;;;;;;;4.13;1.50;;;18.70;99.90;;;;;;5031846;28;20580;-81
2022/07/15 04:50:49;;;;;;;3.40;1.80;;;18.70;99.90;;;;;;5031752;28;20992;-81
2022/07/15 04:53:15;;;;;;;2.10;1.20;;;18.70;99.90;;;;;;5033311;28;20720;-82
2022/07/15 04:55:46;;;;;;;2.57;1.20;;;18.80;99.90;;;;;;5015389;28;20592;-82
2022/07/15 04:58:14;;;;;;;6.00;1.43;;;18.80;99.90;;;;;;5032104;28;20577;-82
2022/07/15 05:00:45;;;;;;;3.33;1.27;;;18.90;99.90;;;;;;5031245;28;20576;-81
2022/07/15 05:03:13;;;;;;;3.93;1.50;;;18.90;99.90;;;;;;5031835;28;20580;-82
2022/07/15 05:05:40;;;;;;;4.10;1.40;;;19.00;99.90;;;;;;5031102;28;20626;-82
2022/07/15 05:08:08;;;;;;;2.83;1.13;;;19.00;99.90;;;;;;5031779;28;20576;-81
2022/07/15 05:10:38;;;;;;;4.57;1.67;;;19.10;99.90;;;;;;5015279;28;20991;-82
2022/07/15 05:13:05;;;;;;;2.80;1.20;;;19.10;99.90;;;;;;5016108;28;21207;-82
2022/07/15 05:15:31;;;;;;;4.63;1.43;;;19.20;99.90;;;;;;5031180;28;20604;-82
2022/07/15 05:18:05;;;;;;;5.00;1.80;;;19.20;99.90;;;;;;5014760;28;20588;-81
2022/07/15 05:20:31;;;;;;;2.47;1.33;;;19.30;99.90;;;;;;5031299;28;20568;-82
2022/07/15 05:22:57;;;;;;;4.97;1.87;;;19.30;99.90;;;;;;5031268;28;20580;-82
2022/07/15 05:25:25;;;;;;;5.10;1.70;;;19.40;99.90;;;;;;5014333;28;20677;-82
2022/07/15 05:27:51;;;;;;;3.57;1.03;;;19.40;99.90;;;;;;5031440;28;21007;-81
2022/07/15 05:30:17;;;;;;;3.10;1.73;;;19.40;99.90;;;;;;5014191;28;20620;-82
2022/07/15 05:32:44;;;;;;;2.73;1.40;;;19.50;99.90;;;;;;5031234;28;20209;-82
2022/07/15 05:35:15;;;;;;;3.53;1.20;;;19.50;99.90;;;;;;5032586;28;20632;-81
2022/07/15 05:37:42;;;;;;;3.23;1.30;;;19.50;99.90;;;;;;5031101;28;20580;-82
2022/07/15 05:40:11;;;;;;;5.00;1.30;;;19.40;99.90;;;;;;5030665;28;20584;-82
2022/07/15 05:42:46;;;;;;;7.53;2.33;;;19.50;99.90;;;;;;5030999;28;20660;-82
2022/07/15 05:45:12;;;;;;;4.20;1.80;;;19.50;99.90;;;;;;5031347;28;21167;-82
2022/07/15 05:47:49;;;;;;;5.63;1.70;;;19.50;99.90;;;;;;5031517;28;20577;-82
2022/07/15 05:50:17;;;;;;;3.83;1.83;;;19.50;99.90;;;;;;5014248;28;20594;-81
2022/07/15 05:52:43;;;;;;;3.63;1.40;;;19.60;99.90;;;;;;5030966;28;20632;-82
2022/07/15 05:55:11;;;;;;;5.43;1.50;;;19.70;99.90;;;;;;5030201;28;21156;-82
2022/07/15 05:57:37;;;;;;;4.07;1.40;;;19.90;99.90;;;;;;5047087;28;20564;-82
2022/07/15 06:00:05;;;;;;;3.80;2.20;;;20.00;99.90;;;;;;5030309;28;20572;-82
2022/07/15 06:02:40;;;;;;;5.60;1.30;;;20.30;99.90;;;;;;5030875;28;20592;-82
2022/07/15 06:05:10;;;;;;;6.37;2.17;;;20.70;99.90;;;;;;5013988;28;20641;-82
2022/07/15 06:07:41;;;;;;;4.20;1.20;;;21.10;99.90;;;;;;5030954;28;20584;-82
2022/07/15 06:10:09;;;;;;;5.10;1.43;;;21.40;99.90;;;;;;5032226;28;20579;-82
2022/07/15 06:12:35;;;;;;;5.60;1.63;;;21.90;99.90;;;;;;5032540;28;20620;-82
2022/07/15 06:15:01;;;;;;;3.70;1.43;;;22.30;99.90;;;;;;5015306;28;20604;-82
2022/07/15 06:17:27;;;;;;;3.83;1.40;;;22.70;99.90;;;;;;5032699;28;20979;-82
2022/07/15 06:19:55;;;;;;;3.50;1.17;;;23.20;99.90;;;;;;5031947;28;20181;-82
2022/07/15 06:22:21;;;;;;;3.57;1.00;;;23.60;99.90;;;;;;5014182;28;20580;-83
2022/07/15 06:24:47;;;;;;;3.13;1.40;;;24.20;99.80;;;;;;5031705;28;20892;-83
2022/07/15 06:27:12;;;;;;;4.83;1.37;;;25.00;99.70;;;;;;5031028;28;20264;-83
2022/07/15 06:29:38;;;;;;;3.43;1.30;;;25.80;99.30;;;;;;5030991;28;20173;-83
2022/07/15 06:32:04;;;;;;;3.27;1.50;;;26.70;98.20;;;;;;5030389;28;20344;-83
2022/07/15 06:34:30;;;;;;;3.10;1.10;;;27.50;97.10;;;;;;5029984;28;20327;-83
2022/07/15 06:36:57;;;;;;;3.30;1.20;;;28.30;96.30;;;;;;5030437;28;20585;-83
2022/07/15 06:39:24;;;;;;;2.50;1.40;;;29.20;94.90;;;;;;5030252;28;20580;-83
2022/07/15 06:41:50;;;;;;;5.43;1.60;;;30.00;93.50;;;;;;5030079;28;20576;-83
2022/07/15 06:44:16;;;;;;;3.30;1.60;;;30.80;92.20;;;;;;5029435;28;20640;-83
2022/07/15 06:46:44;;;;;;;3.30;1.20;;;31.50;90.30;;;;;;5030808;28;20172;-83
2022/07/15 06:49:10;;;;;;;5.83;2.20;;;32.00;86.30;;;;;;5014978;28;20577;-84
2022/07/15 06:51:35;;;;;;;3.60;1.20;;;32.10;82.40;;;;;;5030320;28;20177;-83
2022/07/15 06:54:02;;;;;;;8.17;1.67;;;31.80;77.40;;;;;;5029430;28;20209;-83
2022/07/15 06:56:30;;;;;;;4.13;1.57;;;31.60;74.40;;;;;;5030322;28;20588;-84
2022/07/15 06:58:56;;;;;;;6.07;1.77;;;31.70;74.90;;;;;;5029892;28;21143;-84
2022/07/15 07:01:23;;;;;;;3.53;1.27;;;32.00;74.20;;;;;;5029675;28;20169;-83
2022/07/15 07:03:50;;;;;;;3.10;1.30;;;32.40;73.80;;;;;;5029941;28;20645;-84
2022/07/15 07:06:16;;;;;;;4.80;1.33;;;32.90;72.10;;;;;;5031751;28;21091;-83
2022/07/15 07:08:42;;;;;;;3.50;1.30;;;33.20;70.00;;;;;;5029981;28;20664;-84
2022/07/15 07:11:08;;;;;;;2.73;1.20;;;33.70;68.40;;;;;;5034011;28;20580;-84
2022/07/15 07:13:34;;;;;;;2.40;1.10;;;34.10;67.10;;;;;;5034793;28;20792;-84
2022/07/15 07:15:59;;;;;;;3.30;1.10;;;34.70;65.50;;;;;;5034446;28;20688;-84
2022/07/15 07:18:25;;;;;;;1.67;0.80;;;35.20;62.50;;;;;;5034968;28;20173;-85
2022/07/15 07:20:51;;;;;;;4.20;1.30;;;35.60;60.70;;;;;;5034896;28;20249;-85
2022/07/15 07:23:17;;;;;;;1.60;0.83;;;36.10;59.50;;;;;;5035474;28;20187;-85
2022/07/15 07:25:43;;;;;;;3.37;1.00;;;36.50;56.80;;;;;;5034049;28;20208;-85
2022/07/15 07:28:09;;;;;;;2.37;1.00;;;36.70;55.60;;;;;;5033802;28;21135;-85
2022/07/15 07:30:34;;;;;;;3.60;1.20;;;36.60;54.00;;;;;;5033213;28;20216;-85
2022/07/15 07:33:00;;;;;;;2.60;1.00;;;36.40;52.30;;;;;;5034686;28;20404;-85
2022/07/15 07:35:26;;;;;;;2.13;1.10;;;36.60;51.90;;;;;;5034181;28;20564;-85
2022/07/15 07:37:52;;;;;;;2.30;1.10;;;36.60;51.90;;;;;;5034726;28;20568;-85
2022/07/15 07:40:18;;;;;;;2.70;1.20;;;36.60;50.70;;;;;;5034622;28;20169;-85
2022/07/15 07:42:44;;;;;;;2.13;0.90;;;36.60;50.00;;;;;;5034130;28;20181;-85
2022/07/15 07:45:10;;;;;;;1.50;0.80;;;36.40;49.20;;;;;;5031107;28;20194;-85
2022/07/15 07:47:39;;;;;;;2.77;1.00;;;36.50;48.90;;;;;;5026203;28;21207;-83
2022/07/15 07:50:07;;;;;;;2.60;0.70;;;36.70;49.10;;;;;;5034092;28;20579;-86
2022/07/15 07:52:34;;;;;;;6.10;1.30;;;36.90;48.30;;;;;;5034717;28;20634;-75
2022/07/15 07:54:59;;;;;;;2.63;0.90;;;37.20;47.80;;;;;;5033255;28;20691;-76
2022/07/15 07:57:25;;;;;;;4.47;1.07;;;37.50;47.20;;;;;;5033985;28;20969;-76
2022/07/15 07:59:51;;;;;;;3.97;0.90;;;37.90;47.10;;;;;;5032489;28;20173;-76
2022/07/15 08:02:16;;;;;;;3.10;0.70;;;37.90;45.80;;;;;;5032884;28;20177;-75
2022/07/15 08:04:42;;;;;;;2.07;0.90;;;37.60;44.80;;;;;;5033439;28;20216;-75
2022/07/15 08:07:11;;;;;;;1.80;0.60;;;37.00;42.80;;;;;;5032707;28;20173;-75
2022/07/15 08:09:36;;;;;;;2.43;0.70;;;36.30;42.00;;;;;;5033383;28;20538;-75
2022/07/15 08:12:03;;;;;;;1.70;0.67;;;35.30;41.50;;;;;;5049151;28;20603;-77
2022/07/15 08:14:29;;;;;;;2.10;0.50;;;34.70;42.50;;;;;;5033181;28;20257;-77
2022/07/15 08:16:55;;;;;;;1.73;0.60;;;34.00;42.10;;;;;;5033476;28;20581;-77
2022/07/15 08:19:20;;;;;;;1.97;0.60;;;33.40;41.50;;;;;;5034051;28;20980;-77
2022/07/15 08:21:46;;;;;;;1.50;0.60;;;32.80;42.10;;;;;;5033333;28;20173;-76
2022/07/15 08:24:12;;;;;;;1.50;0.50;;;32.10;41.90;;;;;;5033163;28;20186;-75
2022/07/15 08:26:39;;;;;;;1.60;0.50;;;31.50;42.20;;;;;;5033571;28;20169;-75
2022/07/15 08:29:04;;;;;;;1.90;0.60;;;31.00;42.30;;;;;;5033636;28;20946;-75
2022/07/15 08:31:35;;;;;;;2.90;0.60;;;30.80;42.90;;;;;;5032798;28;20664;-75
2022/07/15 08:34:02;;;;;;;1.30;0.43;;;30.80;43.90;;;;;;5031517;28;20577;-75
2022/07/15 08:36:28;;;;;;;2.43;0.67;;;30.70;43.20;;;;;;5015744;28;20593;-75
2022/07/15 08:38:54;;;;;;;2.07;0.50;;;30.70;43.30;;;;;;5033101;28;20621;-75
2022/07/15 08:41:20;;;;;;;8.20;0.90;;;31.00;43.70;;;;;;5034011;28;20166;-75
2022/07/15 08:43:46;;;;;;;1.83;0.63;;;31.20;44.00;;;;;;5033008;28;20948;-75
2022/07/15 08:46:14;;;;;;;3.67;0.80;;;31.20;43.60;;;;;;5031533;28;20534;-75
2022/07/15 08:48:47;;;;;;;3.50;0.90;;;31.10;42.90;;;;;;5033154;28;20564;-75
2022/07/15 08:51:14;;;;;;;1.73;0.60;;;30.80;42.00;;;;;;5032807;28;20604;-75
2022/07/15 08:53:40;;;;;;;2.20;0.60;;;30.40;41.60;;;;;;5031427;28;21005;-75
2022/07/15 08:56:06;;;;;;;1.97;0.80;;;30.10;41.90;;;;;;5032366;28;20675;-75
2022/07/15 08:58:35;;;;;;;1.90;0.60;;;29.80;42.10;;;;;;5032912;28;20679;-75
2022/07/15 09:01:00;;;;;;;2.30;0.70;;;29.40;42.30;;;;;;5031055;28;20681;-75
2022/07/15 09:03:26;;;;;;;3.00;0.77;;;29.10;42.30;;;;;;5031435;28;20660;-75
2022/07/15 09:05:52;;;;;;;3.13;0.73;;;28.80;42.80;;;;;;5022523;28;20190;-74
2022/07/15 09:08:19;;;;;;;3.13;0.80;;;28.80;44.00;;;;;;5029192;28;20174;-75
2022/07/15 09:10:51;;;;;;;14.97;1.03;;;29.30;45.50;;;;;;5032390;28;20180;-75
2022/07/15 09:13:30;;;;;;;4.00;1.10;;;29.80;45.20;;;;;;5014897;28;20642;-75
2022/07/15 09:15:58;;;;;;;3.10;0.80;;;30.10;45.40;;;;;;5032254;28;20624;-75
2022/07/15 09:18:29;;;;;;;2.40;0.60;;;30.80;45.90;;;;;;5032581;28;20569;-75
2022/07/15 09:20:56;;;;;;;2.40;0.70;;;31.70;46.50;;;;;;5032149;28;20989;-75
2022/07/15 09:23:29;;;;;;;3.60;0.80;;;32.70;47.30;;;;;;5032187;28;20656;-75
2022/07/15 09:26:19;;;;;;;2.43;0.87;;;33.50;44.60;;;;;;5031944;28;20614;-75
2022/07/15 09:28:45;;;;;;;2.80;0.70;;;34.10;42.80;;;;;;5032185;28;21155;-76
2022/07/15 09:34:01;;;;;;;2.67;0.80;;;34.80;42.10;;;;;;5031587;28;20210;-75
2022/07/15 09:36:30;;;;;;;3.40;0.80;;;34.80;41.10;;;;;;5030928;28;20957;-75
2022/07/15 09:38:58;;;;;;;3.40;0.97;;;34.50;40.50;;;;;;5033333;28;20563;-76
2022/07/15 09:41:33;;;;;;;2.00;0.70;;;34.10;40.00;;;;;;5030575;28;20576;-76
2022/07/15 09:44:15;;;;;;;2.43;0.80;;;33.70;39.60;;;;;;5031417;28;21131;-76
2022/07/15 09:46:57;;;;;;;4.17;0.90;;;33.30;40.10;;;;;;5032031;28;20616;-75
2022/07/15 09:49:22;;;;;;;2.70;1.00;;;33.10;40.20;;;;;;5032150;28;20583;-76
2022/07/15 09:51:54;;;;;;;5.87;1.63;;;32.80;40.20;;;;;;5030254;28;20675;-76
2022/07/15 09:54:31;;;;;;;4.10;0.90;;;32.50;40.90;;;;;;5031438;28;20224;-75
2022/07/15 09:56:59;;;;;;;2.33;0.67;;;32.60;41.90;;;;;;5031826;28;21108;-76
2022/07/15 09:59:25;;;;;;;2.17;0.73;;;33.10;41.90;;;;;;5031035;28;20591;-76
2022/07/15 10:01:51;;;;;;;1.50;0.60;;;33.50;41.30;;;;;;5031566;28;20643;-75
2022/07/15 10:04:20;;;;;;;3.63;0.70;;;33.50;40.40;;;;;;5029953;28;20652;-75
2022/07/15 10:06:48;;;;;;;3.20;0.87;;;33.70;40.80;;;;;;5031758;28;20601;-75
2022/07/15 10:09:14;;;;;;;2.40;0.80;;;34.00;41.20;;;;;;5031964;28;20582;-76
2022/07/15 10:11:49;;;;;;;3.00;0.80;;;34.50;41.80;;;;;;5031366;28;20699;-75
2022/07/15 10:14:42;;;;;;;1.60;0.80;;;35.00;40.70;;;;;;5031422;28;20570;-76
2022/07/15 10:17:36;;;;;;;2.20;1.00;;;35.60;40.50;;;;;;5031772;28;20574;-75
2022/07/15 10:20:04;;;;;;;2.47;1.00;;;36.00;39.80;;;;;;5030012;28;20575;-75
2022/07/15 10:22:58;;;;;;;4.60;1.33;;;36.00;38.50;;;;;;5014128;28;20574;-75
2022/07/15 10:25:49;;;;;;;3.30;1.20;;;35.70;38.00;;;;;;5008849;28;20633;-75
2022/07/15 10:28:24;;;;;;;2.23;0.90;;;35.30;37.80;;;;;;5027582;28;20934;-76
2022/07/15 10:31:13;;;;;;;2.93;1.30;;;35.00;37.50;;;;;;5030922;28;20623;-75
2022/07/15 10:33:39;;;;;;;2.93;0.90;;;34.60;37.50;;;;;;5031265;28;20617;-75
2022/07/15 10:36:06;;;;;;;3.70;1.10;;;34.60;38.20;;;;;;5030774;28;20597;-75
2022/07/15 10:38:37;;;;;;;2.87;1.00;;;34.70;38.60;;;;;;5031347;28;20208;-75
2022/07/15 10:41:02;;;;;;;2.80;1.27;;;35.10;39.20;;;;;;5031103;28;21069;-76
2022/07/15 10:43:41;;;;;;;2.97;0.80;;;35.50;38.90;;;;;;5031985;28;20671;-76
2022/07/15 10:46:18;;;;;;;1.93;0.80;;;35.80;38.40;;;;;;5033757;28;20181;-75
2022/07/15 10:49:13;;;;;;;3.00;0.70;;;36.10;35.70;;;;;;5035319;28;20633;-76
2022/07/15 10:51:39;;;;;;;2.10;0.70;;;36.40;36.10;;;;;;5034989;28;20576;-76
2022/07/15 10:54:17;;;;;;;3.87;0.90;;;36.60;36.70;;;;;;5033586;28;20670;-74
2022/07/15 10:56:45;;;;;;;2.00;0.80;;;36.80;36.30;;;;;;5033880;28;20571;-73
2022/07/15 10:59:21;;;;;;;2.23;0.90;;;36.80;36.10;;;;;;5034009;28;20668;-73
2022/07/15 11:01:49;;;;;;;1.50;0.60;;;36.60;35.00;;;;;;5034994;28;20575;-73
2022/07/15 11:04:27;;;;;;;3.33;0.70;;;36.10;34.40;;;;;;5034310;28;20995;-73
2022/07/15 11:07:11;;;;;;;2.77;0.70;;;35.70;34.70;;;;;;5035131;28;20580;-73
2022/07/15 11:09:58;;;;;;;2.33;0.60;;;35.40;34.30;;;;;;5034828;28;20667;-73
2022/07/15 11:12:50;;;;;;;2.13;0.73;;;35.10;34.40;;;;;;5033725;28;20628;-75
2022/07/15 11:15:20;;;;;;;1.77;0.60;;;35.10;36.00;;;;;;5034339;28;20973;-76
2022/07/15 11:17:51;;;;;;;2.10;1.00;;;35.10;35.70;;;;;;5034650;28;21179;-76
2022/07/15 11:20:38;;;;;;;2.57;1.00;;;34.90;34.50;;;;;;5034613;28;20578;-75
2022/07/15 11:23:06;;;;;;;2.03;0.70;;;34.50;34.30;;;;;;5035078;28;20587;-76
2022/07/15 11:25:38;;;;;;;2.20;0.70;;;34.20;34.90;;;;;;5036671;28;20612;-75
2022/07/15 11:28:08;;;;;;;2.33;0.97;;;33.90;34.40;;;;;;5041150;28;20617;-75
2022/07/15 11:30:53;;;;;;;1.40;0.70;;;33.60;34.90;;;;;;5040032;28;20578;-75
2022/07/15 11:33:25;;;;;;;2.03;0.60;;;33.50;36.00;;;;;;5035685;28;20637;-75
2022/07/15 11:36:00;;;;;;;2.30;0.67;;;33.70;35.80;;;;;;5033104;28;20602;-76
2022/07/15 11:38:36;;;;;;;1.63;0.53;;;33.90;36.10;;;;;;5034540;28;20916;-76
2022/07/15 11:46:45;;;;;;;1.30;0.40;;;34.30;36.00;;;;;;5025802;28;20586;-77
2022/07/15 11:49:10;;;;;;;1.87;0.60;;;34.40;35.20;;;;;;5031918;28;20688;-77
2022/07/15 11:51:36;;;;;;;1.73;0.57;;;34.30;34.60;;;;;;5024586;28;21196;-77
2022/07/15 11:54:05;;;;;;;2.90;0.60;;;34.10;34.10;;;;;;5032367;28;20200;-77
2022/07/15 11:56:31;;;;;;;1.63;0.60;;;33.80;34.00;;;;;;5026724;28;20178;-77
2022/07/15 11:58:58;;;;;;;1.90;0.70;;;33.50;33.80;;;;;;5026732;28;20607;-77
2022/07/15 12:01:29;;;;;;;2.37;0.60;;;33.10;33.80;;;;;;5033419;28;20687;-77
2022/07/15 12:03:57;;;;;;;1.50;0.60;;;32.70;34.40;;;;;;5033799;28;20592;-77
2022/07/15 12:06:31;;;;;;;1.60;0.50;;;32.30;34.20;;;;;;5033364;28;20592;-77
2022/07/15 12:09:00;;;;;;;4.67;0.90;;;32.00;34.50;;;;;;5033811;28;20563;-77
2022/07/15 12:11:27;;;;;;;1.83;0.60;;;31.70;35.00;;;;;;5033511;28;20569;-77
2022/07/15 12:14:21;;;;;;;2.20;0.60;;;31.50;35.40;;;;;;5032225;28;20731;-77
2022/07/15 12:16:49;;;;;;;1.53;0.50;;;31.40;36.10;;;;;;5016916;28;20626;-77
2022/07/15 12:19:17;;;;;;;1.80;0.60;;;31.50;36.10;;;;;;5032782;28;20919;-76
2022/07/15 12:21:46;;;;;;;1.73;0.60;;;31.40;36.10;;;;;;5033200;28;20607;-77
2022/07/15 12:24:15;;;;;;;3.60;0.60;;;31.30;35.70;;;;;;5031539;28;20640;-77
2022/07/15 12:27:02;;;;;;;2.43;0.63;;;31.10;35.60;;;;;;5033681;28;20596;-77
2022/07/15 12:29:30;;;;;;;1.90;0.70;;;30.70;35.50;;;;;;5033429;28;20614;-77
2022/07/15 12:32:05;;;;;;;2.30;0.67;;;30.40;35.70;;;;;;5032826;28;20584;-77
2022/07/15 12:34:51;;;;;;;2.13;0.53;;;30.20;35.90;;;;;;5031203;28;20636;-77
2022/07/15 12:37:24;;;;;;;2.80;0.60;;;29.90;36.00;;;;;;5032246;28;20560;-77
2022/07/15 12:40:05;;;;;;;2.53;0.70;;;29.60;36.40;;;;;;5048268;28;20568;-77
2022/07/15 12:42:44;;;;;;;3.07;0.70;;;29.40;36.60;;;;;;5032843;28;20935;-77
2022/07/15 12:45:26;;;;;;;1.90;0.53;;;29.20;36.70;;;;;;5032502;28;20590;-77
2022/07/15 12:48:13;;;;;;;3.00;0.67;;;29.00;37.00;;;;;;5032886;28;20943;-77
2022/07/15 12:50:50;;;;;;;2.33;0.70;;;28.90;37.30;;;;;;5032661;28;20663;-77
2022/07/15 12:53:21;;;;;;;2.10;0.80;;;28.70;37.60;;;;;;5032332;28;21447;-77
2022/07/15 12:55:49;;;;;;;2.37;0.50;;;28.50;37.50;;;;;;5031158;28;20600;-77
2022/07/15 12:58:17;;;;;;;1.60;0.40;;;28.40;37.50;;;;;;5031693;28;20640;-77
2022/07/15 13:00:45;;;;;;;1.70;0.60;;;28.30;37.60;;;;;;5032264;28;20579;-77
2022/07/15 13:03:15;;;;;;;2.93;0.70;;;28.20;37.90;;;;;;5048288;28;20569;-77
2022/07/15 13:05:46;;;;;;;2.37;0.50;;;28.20;38.00;;;;;;5032291;28;20607;-77
2022/07/15 13:08:20;;;;;;;1.53;0.50;;;28.10;38.30;;;;;;5032898;28;20579;-77
2022/07/15 13:10:48;;;;;;;1.40;0.60;;;28.00;38.20;;;;;;5032573;28;20942;-77